sensor_id;sensor_type;location;lat;lon;timestamp;pressure;altitude;pressure_sealevel;temperature;humidity
40592;BME280;26301;42.832;23.918;2023-07-28T00:01:30;93329.69;;;10.47;89.40
40592;BME280;26301;42.832;23.918;2023-07-28T00:03:56;93315.53;;;10.38;89.26
40592;BME280;26301;42.832;23.918;2023-07-28T00:06:23;93320.38;;;10.34;89.51
40592;BME280;26301;42.832;23.918;2023-07-28T00:08:48;93304.69;;;10.24;90.01
40592;BME280;26301;42.832;23.918;2023-07-28T00:11:15;93320.72;;;10.38;89.98
40592;BME280;26301;42.832;23.918;2023-07-28T00:13:42;93325.97;;;10.43;90.10
40592;BME280;26301;42.832;23.918;2023-07-28T00:16:09;93326.44;;;10.40;89.83
40592;BME280;26301;42.832;23.918;2023-07-28T00:18:35;93331.50;;;10.35;89.94
40592;BME280;26301;42.832;23.918;2023-07-28T00:21:07;93308.25;;;10.35;89.53
40592;BME280;26301;42.832;23.918;2023-07-28T00:23:32;93303.91;;;10.23;89.70
40592;BME280;26301;42.832;23.918;2023-07-28T00:25:58;93333.28;;;10.46;89.77
40592;BME280;26301;42.832;23.918;2023-07-28T00:28:23;93327.91;;;10.47;89.68
40592;BME280;26301;42.832;23.918;2023-07-28T00:30:49;93328.66;;;10.48;89.19
40592;BME280;26301;42.832;23.918;2023-07-28T00:33:16;93326.88;;;10.48;89.46
40592;BME280;26301;42.832;23.918;2023-07-28T00:35:41;93326.00;;;10.31;89.65
40592;BME280;26301;42.832;23.918;2023-07-28T00:38:09;93314.13;;;10.18;90.29
40592;BME280;26301;42.832;23.918;2023-07-28T00:40:37;93321.88;;;10.18;90.81
40592;BME280;26301;42.832;23.918;2023-07-28T00:43:03;93312.78;;;10.16;90.61
40592;BME280;26301;42.832;23.918;2023-07-28T00:45:29;93320.53;;;10.16;91.01
40592;BME280;26301;42.832;23.918;2023-07-28T00:47:56;93302.28;;;9.94;91.76
40592;BME280;26301;42.832;23.918;2023-07-28T00:50:25;93312.78;;;10.04;92.03
40592;BME280;26301;42.832;23.918;2023-07-28T00:52:51;93295.19;;;10.01;91.32
40592;BME280;26301;42.832;23.918;2023-07-28T00:55:17;93312.78;;;10.04;92.11
40592;BME280;26301;42.832;23.918;2023-07-28T00:57:43;93311.81;;;10.05;92.25
40592;BME280;26301;42.832;23.918;2023-07-28T01:00:09;93281.84;;;9.80;92.02
40592;BME280;26301;42.832;23.918;2023-07-28T01:02:35;93315.63;;;10.02;92.45
40592;BME280;26301;42.832;23.918;2023-07-28T01:05:01;93308.88;;;10.01;92.29
40592;BME280;26301;42.832;23.918;2023-07-28T01:07:47;93318.50;;;10.18;92.28
40592;BME280;26301;42.832;23.918;2023-07-28T01:10:23;93317.94;;;10.16;91.57
40592;BME280;26301;42.832;23.918;2023-07-28T01:12:49;93317.81;;;10.11;91.87
40592;BME280;26301;42.832;23.918;2023-07-28T01:15:15;93277.59;;;9.86;91.49
40592;BME280;26301;42.832;23.918;2023-07-28T01:17:41;93294.75;;;9.92;92.10
40592;BME280;26301;42.832;23.918;2023-07-28T01:20:07;93305.97;;;9.98;92.18
40592;BME280;26301;42.832;23.918;2023-07-28T01:22:58;93324.25;;;10.08;91.98
40592;BME280;26301;42.832;23.918;2023-07-28T01:25:39;93327.81;;;10.07;92.53
40592;BME280;26301;42.832;23.918;2023-07-28T01:28:08;93321.31;;;10.04;92.24
40592;BME280;26301;42.832;23.918;2023-07-28T01:30:35;93319.16;;;10.13;91.93
40592;BME280;26301;42.832;23.918;2023-07-28T01:33:00;93320.06;;;10.07;92.72
40592;BME280;26301;42.832;23.918;2023-07-28T01:35:26;93318.19;;;10.02;92.54
40592;BME280;26301;42.832;23.918;2023-07-28T01:37:51;93303.94;;;10.00;93.29
40592;BME280;26301;42.832;23.918;2023-07-28T01:40:20;93311.69;;;10.00;93.39
40592;BME280;26301;42.832;23.918;2023-07-28T01:42:46;93309.56;;;9.97;92.76
40592;BME280;26301;42.832;23.918;2023-07-28T01:45:11;93308.88;;;10.01;93.33
40592;BME280;26301;42.832;23.918;2023-07-28T01:47:37;93294.88;;;9.85;93.20
40592;BME280;26301;42.832;23.918;2023-07-28T01:50:03;93284.34;;;9.87;92.94
40592;BME280;26301;42.832;23.918;2023-07-28T01:52:28;93310.00;;;10.05;93.37
40592;BME280;26301;42.832;23.918;2023-07-28T01:54:54;93285.00;;;9.94;92.92
40592;BME280;26301;42.832;23.918;2023-07-28T01:57:19;93302.59;;;10.09;92.08
40592;BME280;26301;42.832;23.918;2023-07-28T01:59:45;93299.91;;;9.92;93.01
40592;BME280;26301;42.832;23.918;2023-07-28T02:02:10;93298.09;;;9.93;93.17
40592;BME280;26301;42.832;23.918;2023-07-28T02:04:36;93293.88;;;9.75;93.26
40592;BME280;26301;42.832;23.918;2023-07-28T02:07:01;93293.06;;;9.74;94.05
40592;BME280;26301;42.832;23.918;2023-07-28T02:09:26;93313.94;;;9.84;94.33
40592;BME280;26301;42.832;23.918;2023-07-28T02:11:52;93307.00;;;9.85;94.55
40592;BME280;26301;42.832;23.918;2023-07-28T02:14:18;93294.66;;;9.75;94.44
40592;BME280;26301;42.832;23.918;2023-07-28T02:16:44;93300.81;;;9.86;93.68
40592;BME280;26301;42.832;23.918;2023-07-28T02:19:09;93302.94;;;9.89;93.50
40592;BME280;26301;42.832;23.918;2023-07-28T02:21:35;93307.19;;;9.83;93.68
40592;BME280;26301;42.832;23.918;2023-07-28T02:24:00;93266.44;;;9.57;94.01
40592;BME280;26301;42.832;23.918;2023-07-28T02:26:26;93314.16;;;9.83;94.33
40592;BME280;26301;42.832;23.918;2023-07-28T02:28:51;93303.84;;;9.71;94.51
40592;BME280;26301;42.832;23.918;2023-07-28T02:31:17;93288.28;;;9.54;94.74
40592;BME280;26301;42.832;23.918;2023-07-28T02:33:42;93282.56;;;9.41;95.81
40592;BME280;26301;42.832;23.918;2023-07-28T02:36:08;93299.94;;;9.57;95.61
40592;BME280;26301;42.832;23.918;2023-07-28T02:38:33;93313.38;;;9.59;96.55
40592;BME280;26301;42.832;23.918;2023-07-28T02:40:59;93302.16;;;9.53;96.84
40592;BME280;26301;42.832;23.918;2023-07-28T02:43:24;93294.78;;;9.45;97.13
40592;BME280;26301;42.832;23.918;2023-07-28T02:45:57;93305.19;;;9.50;97.09
40592;BME280;26301;42.832;23.918;2023-07-28T02:48:23;93291.19;;;9.46;97.17
40592;BME280;26301;42.832;23.918;2023-07-28T02:50:51;93289.72;;;9.50;96.96
40592;BME280;26301;42.832;23.918;2023-07-28T02:53:18;93312.28;;;9.67;96.48
40592;BME280;26301;42.832;23.918;2023-07-28T02:55:44;93307.00;;;9.73;96.07
40592;BME280;26301;42.832;23.918;2023-07-28T02:58:11;93295.34;;;9.59;95.14
40592;BME280;26301;42.832;23.918;2023-07-28T03:00:40;93279.66;;;9.49;95.48
40592;BME280;26301;42.832;23.918;2023-07-28T03:03:08;93294.66;;;9.52;95.53
40592;BME280;26301;42.832;23.918;2023-07-28T03:05:36;93310.59;;;9.49;97.36
40592;BME280;26301;42.832;23.918;2023-07-28T03:08:02;93292.19;;;9.22;97.91
40592;BME280;26301;42.832;23.918;2023-07-28T03:10:28;93314.63;;;9.33;98.60
40592;BME280;26301;42.832;23.918;2023-07-28T03:12:54;93306.19;;;9.26;98.97
40592;BME280;26301;42.832;23.918;2023-07-28T03:15:20;93313.25;;;9.30;98.70
40592;BME280;26301;42.832;23.918;2023-07-28T03:17:47;93298.13;;;9.22;98.74
40592;BME280;26301;42.832;23.918;2023-07-28T03:20:13;93312.13;;;9.38;99.28
40592;BME280;26301;42.832;23.918;2023-07-28T03:22:38;93316.97;;;9.46;98.72
40592;BME280;26301;42.832;23.918;2023-07-28T03:25:04;93293.66;;;9.41;98.37
40592;BME280;26301;42.832;23.918;2023-07-28T03:27:29;93305.19;;;9.50;97.86
40592;BME280;26301;42.832;23.918;2023-07-28T03:29:55;93307.31;;;9.53;97.31
40592;BME280;26301;42.832;23.918;2023-07-28T03:32:20;93306.88;;;9.56;96.92
40592;BME280;26301;42.832;23.918;2023-07-28T03:34:45;93320.00;;;9.55;96.86
40592;BME280;26301;42.832;23.918;2023-07-28T03:37:11;93317.56;;;9.60;96.48
40592;BME280;26301;42.832;23.918;2023-07-28T03:39:37;93318.00;;;9.57;96.08
40592;BME280;26301;42.832;23.918;2023-07-28T03:42:02;93302.41;;;9.52;96.54
40592;BME280;26301;42.832;23.918;2023-07-28T03:44:28;93302.16;;;9.53;97.10
40592;BME280;26301;42.832;23.918;2023-07-28T03:46:53;93315.41;;;9.57;97.07
40592;BME280;26301;42.832;23.918;2023-07-28T03:49:19;93324.38;;;9.66;97.45
40592;BME280;26301;42.832;23.918;2023-07-28T03:51:45;93321.56;;;9.68;96.71
40592;BME280;26301;42.832;23.918;2023-07-28T03:54:11;93303.75;;;9.66;95.93
40592;BME280;26301;42.832;23.918;2023-07-28T03:56:36;93300.72;;;9.69;95.41
40592;BME280;26301;42.832;23.918;2023-07-28T03:59:02;93327.38;;;9.87;95.57
40592;BME280;26301;42.832;23.918;2023-07-28T04:01:27;93323.91;;;9.93;95.93
40592;BME280;26301;42.832;23.918;2023-07-28T04:03:53;93309.56;;;9.97;94.56
40592;BME280;26301;42.832;23.918;2023-07-28T04:06:18;93324.22;;;10.32;92.85
40592;BME280;26301;42.832;23.918;2023-07-28T04:08:44;93322.59;;;10.54;91.24
40592;BME280;26301;42.832;23.918;2023-07-28T04:11:10;93313.00;;;10.66;90.40
40592;BME280;26301;42.832;23.918;2023-07-28T04:13:35;93320.81;;;10.83;89.63
40592;BME280;26301;42.832;23.918;2023-07-28T04:16:01;93298.00;;;10.80;89.75
40592;BME280;26301;42.832;23.918;2023-07-28T04:18:27;93320.81;;;11.00;89.66
40592;BME280;26301;42.832;23.918;2023-07-28T04:20:53;93309.00;;;11.21;88.80
40592;BME280;26301;42.832;23.918;2023-07-28T04:23:18;93333.56;;;11.52;87.03
40592;BME280;26301;42.832;23.918;2023-07-28T04:25:44;93328.66;;;11.73;85.31
40592;BME280;26301;42.832;23.918;2023-07-28T04:28:09;93325.53;;;11.87;84.97
40592;BME280;26301;42.832;23.918;2023-07-28T04:30:35;93328.72;;;12.11;83.37
40592;BME280;26301;42.832;23.918;2023-07-28T04:33:00;93315.00;;;12.33;82.33
40592;BME280;26301;42.832;23.918;2023-07-28T04:35:26;93327.00;;;12.61;81.99
40592;BME280;26301;42.832;23.918;2023-07-28T04:37:52;93315.03;;;12.82;80.78
40592;BME280;26301;42.832;23.918;2023-07-28T04:40:17;93331.91;;;13.12;78.66
40592;BME280;26301;42.832;23.918;2023-07-28T04:42:43;93337.72;;;13.24;77.33
40592;BME280;26301;42.832;23.918;2023-07-28T04:45:08;93312.78;;;13.18;76.64
40592;BME280;26301;42.832;23.918;2023-07-28T04:47:34;93316.34;;;13.39;76.84
40592;BME280;26301;42.832;23.918;2023-07-28T04:50:00;93308.38;;;13.50;77.15
40592;BME280;26301;42.832;23.918;2023-07-28T04:52:25;93309.06;;;13.73;77.74
40592;BME280;26301;42.832;23.918;2023-07-28T04:54:51;93327.38;;;13.99;75.97
40592;BME280;26301;42.832;23.918;2023-07-28T04:57:17;93278.53;;;13.90;74.61
40592;BME280;26301;42.832;23.918;2023-07-28T04:59:44;93320.81;;;14.33;73.72
40592;BME280;26301;42.832;23.918;2023-07-28T05:02:10;93299.31;;;14.48;73.34
40592;BME280;26301;42.832;23.918;2023-07-28T05:04:35;93306.16;;;14.59;72.09
40592;BME280;26301;42.832;23.918;2023-07-28T05:07:02;93317.13;;;14.82;71.88
40592;BME280;26301;42.832;23.918;2023-07-28T05:09:28;93317.69;;;14.99;71.30
40592;BME280;26301;42.832;23.918;2023-07-28T05:11:54;93319.53;;;15.24;70.71
40592;BME280;26301;42.832;23.918;2023-07-28T05:14:20;93307.28;;;15.40;70.61
40592;BME280;26301;42.832;23.918;2023-07-28T05:16:46;93328.69;;;15.83;73.33
40592;BME280;26301;42.832;23.918;2023-07-28T05:19:12;93323.41;;;16.19;70.26
40592;BME280;26301;42.832;23.918;2023-07-28T05:21:38;93325.09;;;16.54;68.09
40592;BME280;26301;42.832;23.918;2023-07-28T05:24:04;93312.19;;;16.88;64.23
40592;BME280;26301;42.832;23.918;2023-07-28T05:26:30;93313.03;;;17.23;64.30
40592;BME280;26301;42.832;23.918;2023-07-28T05:28:55;93301.69;;;17.38;64.46
40592;BME280;26301;42.832;23.918;2023-07-28T05:31:21;93307.69;;;17.73;65.51
40592;BME280;26301;42.832;23.918;2023-07-28T05:33:46;93313.03;;;17.92;61.43
40592;BME280;26301;42.832;23.918;2023-07-28T05:36:12;93310.09;;;17.98;62.43
40592;BME280;26301;42.832;23.918;2023-07-28T05:38:37;93319.53;;;18.23;60.03
40592;BME280;26301;42.832;23.918;2023-07-28T05:41:04;93291.47;;;18.29;58.70
40592;BME280;26301;42.832;23.918;2023-07-28T05:43:30;93302.78;;;18.48;58.63
40592;BME280;26301;42.832;23.918;2023-07-28T05:45:59;93297.75;;;18.52;59.60
40592;BME280;26301;42.832;23.918;2023-07-28T05:48:25;93291.97;;;18.55;60.30
40592;BME280;26301;42.832;23.918;2023-07-28T05:50:51;93311.59;;;18.77;55.49
40592;BME280;26301;42.832;23.918;2023-07-28T05:53:18;93296.41;;;18.79;58.84
40592;BME280;26301;42.832;23.918;2023-07-28T05:55:44;93297.75;;;18.95;58.88
40592;BME280;26301;42.832;23.918;2023-07-28T05:58:09;93309.16;;;19.23;54.60
40592;BME280;26301;42.832;23.918;2023-07-28T06:00:35;93310.00;;;19.37;53.75
40592;BME280;26301;42.832;23.918;2023-07-28T06:03:04;93292.34;;;19.43;52.59
40592;BME280;26301;42.832;23.918;2023-07-28T06:05:38;93310.66;;;19.62;53.72
40592;BME280;26301;42.832;23.918;2023-07-28T06:08:04;93297.50;;;19.67;52.70
40592;BME280;26301;42.832;23.918;2023-07-28T06:10:29;93308.53;;;19.83;51.08
40592;BME280;26301;42.832;23.918;2023-07-28T06:12:55;93286.28;;;19.80;52.45
40592;BME280;26301;42.832;23.918;2023-07-28T06:15:26;93298.56;;;19.99;52.75
40592;BME280;26301;42.832;23.918;2023-07-28T06:17:52;93299.25;;;20.18;50.51
40592;BME280;26301;42.832;23.918;2023-07-28T06:20:22;93290.50;;;20.23;49.19
40592;BME280;26301;42.832;23.918;2023-07-28T06:22:48;93298.28;;;20.42;45.76
40592;BME280;26301;42.832;23.918;2023-07-28T06:25:15;93281.59;;;20.38;48.92
40592;BME280;26301;42.832;23.918;2023-07-28T06:27:47;93290.50;;;20.50;47.69
40592;BME280;26301;42.832;23.918;2023-07-28T06:30:13;93269.91;;;20.44;45.64
40592;BME280;26301;42.832;23.918;2023-07-28T06:32:41;93296.94;;;20.44;48.65
40592;BME280;26301;42.832;23.918;2023-07-28T06:35:07;93268.47;;;20.38;45.31
40592;BME280;26301;42.832;23.918;2023-07-28T06:37:38;93236.81;;;20.34;45.41
40592;BME280;26301;42.832;23.918;2023-07-28T06:40:07;93291.19;;;20.84;43.35
40592;BME280;26301;42.832;23.918;2023-07-28T06:42:35;93283.38;;;21.06;42.25
40592;BME280;26301;42.832;23.918;2023-07-28T06:45:03;93281.06;;;21.27;44.71
40592;BME280;26301;42.832;23.918;2023-07-28T06:47:29;93228.25;;;21.15;43.78
40592;BME280;26301;42.832;23.918;2023-07-28T06:49:55;93269.19;;;21.52;43.82
40592;BME280;26301;42.832;23.918;2023-07-28T06:52:22;93280.81;;;21.82;42.47
40592;BME280;26301;42.832;23.918;2023-07-28T06:54:48;93285.00;;;21.83;40.91
40592;BME280;26301;42.832;23.918;2023-07-28T06:57:15;93266.13;;;21.81;41.52
40592;BME280;26301;42.832;23.918;2023-07-28T06:59:41;93272.38;;;21.94;40.53
40592;BME280;26301;42.832;23.918;2023-07-28T07:02:08;93279.53;;;22.02;41.65
40592;BME280;26301;42.832;23.918;2023-07-28T07:04:35;93254.41;;;21.96;41.60
40592;BME280;26301;42.832;23.918;2023-07-28T07:07:01;93270.19;;;22.19;40.13
40592;BME280;26301;42.832;23.918;2023-07-28T07:09:28;93271.03;;;22.36;40.32
40592;BME280;26301;42.832;23.918;2023-07-28T07:11:54;93291.19;;;22.50;40.56
40592;BME280;26301;42.832;23.918;2023-07-28T07:14:20;93282.22;;;22.51;39.47
40592;BME280;26301;42.832;23.918;2023-07-28T07:17:10;93288.78;;;22.79;40.17
40592;BME280;26301;42.832;23.918;2023-07-28T07:19:35;93291.16;;;22.98;39.52
40592;BME280;26301;42.832;23.918;2023-07-28T07:22:02;93288.09;;;23.14;39.05
40592;BME280;26301;42.832;23.918;2023-07-28T07:24:28;93292.28;;;23.23;39.97
40592;BME280;26301;42.832;23.918;2023-07-28T07:26:54;93290.56;;;23.36;39.60
40592;BME280;26301;42.832;23.918;2023-07-28T07:29:20;93285.59;;;23.52;37.26
40592;BME280;26301;42.832;23.918;2023-07-28T07:31:47;93274.75;;;23.54;36.75
40592;BME280;26301;42.832;23.918;2023-07-28T07:34:27;93283.09;;;23.73;38.25
40592;BME280;26301;42.832;23.918;2023-07-28T07:37:04;93277.81;;;23.82;39.11
40592;BME280;26301;42.832;23.918;2023-07-28T07:39:30;93281.50;;;23.98;35.58
40592;BME280;26301;42.832;23.918;2023-07-28T07:41:57;93285.94;;;24.15;34.33
40592;BME280;26301;42.832;23.918;2023-07-28T07:44:23;93286.69;;;24.24;35.88
40592;BME280;26301;42.832;23.918;2023-07-28T07:46:50;93274.72;;;24.27;35.72
40592;BME280;26301;42.832;23.918;2023-07-28T07:49:16;93286.16;;;24.39;35.29
40592;BME280;26301;42.832;23.918;2023-07-28T07:51:43;93286.75;;;24.54;35.81
40592;BME280;26301;42.832;23.918;2023-07-28T07:54:09;93277.72;;;24.55;34.86
40592;BME280;26301;42.832;23.918;2023-07-28T07:56:35;93287.47;;;24.63;35.93
40592;BME280;26301;42.832;23.918;2023-07-28T07:59:06;93276.41;;;24.70;36.05
40592;BME280;26301;42.832;23.918;2023-07-28T08:01:35;93285.00;;;24.87;31.93
40592;BME280;26301;42.832;23.918;2023-07-28T08:04:01;93289.94;;;24.98;33.33
40592;BME280;26301;42.832;23.918;2023-07-28T08:06:27;93262.19;;;24.83;33.30
40592;BME280;26301;42.832;23.918;2023-07-28T08:08:54;93291.41;;;25.07;32.63
40592;BME280;26301;42.832;23.918;2023-07-28T08:11:22;93283.38;;;25.25;30.48
40592;BME280;26301;42.832;23.918;2023-07-28T08:13:49;93294.50;;;25.09;32.43
40592;BME280;26301;42.832;23.918;2023-07-28T08:16:17;93294.97;;;25.32;31.27
40592;BME280;26301;42.832;23.918;2023-07-28T08:18:43;93293.09;;;25.54;32.26
40592;BME280;26301;42.832;23.918;2023-07-28T08:21:12;93289.97;;;25.73;32.60
40592;BME280;26301;42.832;23.918;2023-07-28T08:23:39;93291.75;;;25.81;32.84
40592;BME280;26301;42.832;23.918;2023-07-28T08:26:06;93285.91;;;25.96;33.01
40592;BME280;26301;42.832;23.918;2023-07-28T08:28:32;93294.41;;;26.14;32.68
40592;BME280;26301;42.832;23.918;2023-07-28T08:30:58;93294.97;;;26.32;30.77
40592;BME280;26301;42.832;23.918;2023-07-28T08:33:25;93292.78;;;26.46;33.37
40592;BME280;26301;42.832;23.918;2023-07-28T08:35:51;93293.06;;;26.54;31.56
40592;BME280;26301;42.832;23.918;2023-07-28T08:38:20;93298.94;;;26.38;32.75
40592;BME280;26301;42.832;23.918;2023-07-28T08:40:46;93280.97;;;26.44;34.07
40592;BME280;26301;42.832;23.918;2023-07-28T08:43:12;93295.47;;;26.59;30.98
40592;BME280;26301;42.832;23.918;2023-07-28T08:45:39;93290.06;;;26.55;31.42
40592;BME280;26301;42.832;23.918;2023-07-28T08:48:05;93289.38;;;26.46;30.12
40592;BME280;26301;42.832;23.918;2023-07-28T08:50:31;93292.59;;;26.52;32.04
40592;BME280;26301;42.832;23.918;2023-07-28T08:52:59;93276.56;;;26.48;31.14
40592;BME280;26301;42.832;23.918;2023-07-28T08:55:25;93277.16;;;26.54;32.67
40592;BME280;26301;42.832;23.918;2023-07-28T08:57:52;93279.25;;;26.60;33.37
40592;BME280;26301;42.832;23.918;2023-07-28T09:00:19;93259.81;;;26.68;33.14
40592;BME280;26301;42.832;23.918;2023-07-28T09:02:49;93275.44;;;26.98;32.82
40592;BME280;26301;42.832;23.918;2023-07-28T09:05:21;93277.66;;;27.08;34.19
40592;BME280;26301;42.832;23.918;2023-07-28T09:07:49;93267.03;;;27.08;31.97
40592;BME280;26301;42.832;23.918;2023-07-28T09:10:15;93260.63;;;27.22;30.72
40592;BME280;26301;42.832;23.918;2023-07-28T09:12:59;93250.31;;;27.32;31.13
40592;BME280;26301;42.832;23.918;2023-07-28T09:15:26;93267.69;;;27.58;31.58
40592;BME280;26301;42.832;23.918;2023-07-28T09:17:52;93244.06;;;27.53;31.28
40592;BME280;26301;42.832;23.918;2023-07-28T09:20:17;93247.44;;;27.66;30.11
40592;BME280;26301;42.832;23.918;2023-07-28T09:22:44;93256.72;;;27.88;30.43
40592;BME280;26301;42.832;23.918;2023-07-28T09:25:14;93264.78;;;27.91;30.97
40592;BME280;26301;42.832;23.918;2023-07-28T09:30:16;93234.47;;;27.64;30.49
40592;BME280;26301;42.832;23.918;2023-07-28T09:32:50;93250.81;;;27.78;31.16
40592;BME280;26301;42.832;23.918;2023-07-28T09:35:17;93239.69;;;27.89;30.38
40592;BME280;26301;42.832;23.918;2023-07-28T09:37:46;93241.50;;;28.00;30.44
40592;BME280;26301;42.832;23.918;2023-07-28T09:40:16;93249.13;;;28.02;30.56
40592;BME280;26301;42.832;23.918;2023-07-28T09:42:44;93229.69;;;27.98;30.23
40592;BME280;26301;42.832;23.918;2023-07-28T09:45:16;93224.72;;;27.96;30.34
40592;BME280;26301;42.832;23.918;2023-07-28T09:47:46;93216.50;;;28.01;30.59
40592;BME280;26301;42.832;23.918;2023-07-28T09:50:15;93212.91;;;27.94;28.95
40592;BME280;26301;42.832;23.918;2023-07-28T09:52:44;93223.03;;;28.04;31.05
40592;BME280;26301;42.832;23.918;2023-07-28T09:55:12;93213.94;;;27.89;31.11
40592;BME280;26301;42.832;23.918;2023-07-28T09:57:52;93212.13;;;27.93;31.83
40592;BME280;26301;42.832;23.918;2023-07-28T10:00:19;93202.44;;;27.85;31.38
40592;BME280;26301;42.832;23.918;2023-07-28T10:02:46;93216.50;;;28.01;30.88
40592;BME280;26301;42.832;23.918;2023-07-28T10:05:14;93221.06;;;28.01;31.07
40592;BME280;26301;42.832;23.918;2023-07-28T10:07:42;93211.44;;;27.96;29.55
40592;BME280;26301;42.832;23.918;2023-07-28T10:10:13;93202.88;;;27.87;30.22
40592;BME280;26301;42.832;23.918;2023-07-28T10:12:41;93196.47;;;27.88;30.49
40592;BME280;26301;42.832;23.918;2023-07-28T10:15:12;93206.59;;;27.98;32.27
40592;BME280;26301;42.832;23.918;2023-07-28T10:17:44;93205.69;;;27.94;31.29
40592;BME280;26301;42.832;23.918;2023-07-28T10:20:36;93205.53;;;28.19;31.20
40592;BME280;26301;42.832;23.918;2023-07-28T10:23:11;93216.09;;;28.47;33.33
40592;BME280;26301;42.832;23.918;2023-07-28T10:25:37;93161.34;;;28.11;31.67
40592;BME280;26301;42.832;23.918;2023-07-28T10:28:05;93221.47;;;28.51;31.03
40592;BME280;26301;42.832;23.918;2023-07-28T10:30:52;93213.81;;;28.65;33.11
40592;BME280;26301;42.832;23.918;2023-07-28T10:33:41;93209.91;;;28.59;32.32
40592;BME280;26301;42.832;23.918;2023-07-28T10:38:41;93191.81;;;28.33;33.50
40592;BME280;26301;42.832;23.918;2023-07-28T10:41:17;93210.63;;;28.75;32.76
40592;BME280;26301;42.832;23.918;2023-07-28T10:43:45;93208.81;;;28.79;32.57
40592;BME280;26301;42.832;23.918;2023-07-28T10:46:16;93205.09;;;28.84;31.44
40592;BME280;26301;42.832;23.918;2023-07-28T10:48:47;93188.53;;;28.71;30.77
40592;BME280;26301;42.832;23.918;2023-07-28T10:51:24;93197.25;;;28.71;31.47
40592;BME280;26301;42.832;23.918;2023-07-28T10:54:00;93196.81;;;28.69;33.43
40592;BME280;26301;42.832;23.918;2023-07-28T10:56:29;93195.75;;;28.55;31.18
40592;BME280;26301;42.832;23.918;2023-07-28T10:58:57;93181.69;;;28.54;31.20
40592;BME280;26301;42.832;23.918;2023-07-28T11:01:34;93190.75;;;28.69;31.23
40592;BME280;26301;42.832;23.918;2023-07-28T11:04:07;93184.81;;;28.76;32.98
40592;BME280;26301;42.832;23.918;2023-07-28T11:06:35;93188.41;;;28.83;32.50
40592;BME280;26301;42.832;23.918;2023-07-28T11:09:07;93183.72;;;28.77;31.50
40592;BME280;26301;42.832;23.918;2023-07-28T11:11:34;93188.53;;;28.71;31.54
40592;BME280;26301;42.832;23.918;2023-07-28T11:14:04;93187.59;;;28.63;31.88
40592;BME280;26301;42.832;23.918;2023-07-28T11:16:32;93178.59;;;28.68;31.88
40592;BME280;26301;42.832;23.918;2023-07-28T11:19:02;93175.50;;;28.66;30.32
40592;BME280;26301;42.832;23.918;2023-07-28T11:21:28;93126.81;;;28.26;31.01
40592;BME280;26301;42.832;23.918;2023-07-28T11:23:54;93174.59;;;28.58;30.63
40592;BME280;26301;42.832;23.918;2023-07-28T11:26:21;93171.13;;;28.58;31.76
40592;BME280;26301;42.832;23.918;2023-07-28T11:28:48;93172.16;;;28.69;32.49
40592;BME280;26301;42.832;23.918;2023-07-28T11:31:15;93163.28;;;28.81;30.90
40592;BME280;26301;42.832;23.918;2023-07-28T11:33:41;93147.19;;;28.74;29.93
40592;BME280;26301;42.832;23.918;2023-07-28T11:36:07;93164.22;;;28.88;32.20
40592;BME280;26301;42.832;23.918;2023-07-28T11:38:35;93165.63;;;29.02;32.07
40592;BME280;26301;42.832;23.918;2023-07-28T11:41:03;93162.19;;;29.01;31.77
40592;BME280;26301;42.832;23.918;2023-07-28T11:43:29;93152.09;;;28.91;32.02
40592;BME280;26301;42.832;23.918;2023-07-28T11:45:55;93167.16;;;29.03;31.78
40592;BME280;26301;42.832;23.918;2023-07-28T11:48:22;93165.69;;;29.05;30.90
40592;BME280;26301;42.832;23.918;2023-07-28T11:50:48;93158.09;;;29.04;32.17
40592;BME280;26301;42.832;23.918;2023-07-28T11:53:16;93145.31;;;28.93;31.39
40592;BME280;26301;42.832;23.918;2023-07-28T11:55:43;93153.44;;;29.01;32.43
40592;BME280;26301;42.832;23.918;2023-07-28T11:58:09;93147.78;;;29.02;32.11
40592;BME280;26301;42.832;23.918;2023-07-28T12:00:41;93157.44;;;29.10;32.61
40592;BME280;26301;42.832;23.918;2023-07-28T12:03:13;93150.28;;;29.14;32.52
40592;BME280;26301;42.832;23.918;2023-07-28T12:05:41;93145.97;;;29.06;31.20
40592;BME280;26301;42.832;23.918;2023-07-28T12:08:10;93096.63;;;28.70;35.21
40592;BME280;26301;42.832;23.918;2023-07-28T12:10:36;93115.28;;;28.93;33.03
40592;BME280;26301;42.832;23.918;2023-07-28T12:13:08;93133.78;;;29.05;30.34
40592;BME280;26301;42.832;23.918;2023-07-28T12:15:40;93119.78;;;28.89;31.26
40592;BME280;26301;42.832;23.918;2023-07-28T12:18:16;93137.91;;;29.03;31.90
40592;BME280;26301;42.832;23.918;2023-07-28T12:20:48;93076.28;;;28.78;31.44
40592;BME280;26301;42.832;23.918;2023-07-28T12:23:22;93125.94;;;29.32;30.42
40592;BME280;26301;42.832;23.918;2023-07-28T12:25:54;93129.41;;;29.36;30.92
40592;BME280;26301;42.832;23.918;2023-07-28T12:28:27;93116.06;;;29.32;30.01
40592;BME280;26301;42.832;23.918;2023-07-28T12:30:54;93125.00;;;29.44;30.44
40592;BME280;26301;42.832;23.918;2023-07-28T12:33:21;93128.59;;;29.32;32.40
40592;BME280;26301;42.832;23.918;2023-07-28T12:35:48;93131.66;;;29.34;30.79
40592;BME280;26301;42.832;23.918;2023-07-28T12:38:15;93134.38;;;29.37;32.57
40592;BME280;26301;42.832;23.918;2023-07-28T12:40:43;93124.41;;;29.54;31.56
40592;BME280;26301;42.832;23.918;2023-07-28T12:43:09;93121.97;;;29.65;29.95
40592;BME280;26301;42.832;23.918;2023-07-28T12:45:36;93120.66;;;29.78;30.80
40592;BME280;26301;42.832;23.918;2023-07-28T12:48:03;93117.16;;;29.74;31.61
40592;BME280;26301;42.832;23.918;2023-07-28T12:50:29;93109.91;;;29.51;32.17
40592;BME280;26301;42.832;23.918;2023-07-28T12:53:13;93121.41;;;29.55;29.68
40592;BME280;26301;42.832;23.918;2023-07-28T12:55:39;93121.44;;;29.59;30.94
40592;BME280;26301;42.832;23.918;2023-07-28T12:58:35;93126.53;;;29.64;29.79
40592;BME280;26301;42.832;23.918;2023-07-28T13:01:47;93122.97;;;29.60;31.43